createdAt,value
2022-10-15T00:03:05.598Z,9.72
2022-10-15T00:08:27.505Z,9.69
2022-10-15T00:13:50.499Z,9.70
2022-10-15T00:19:12.527Z,9.64
2022-10-15T00:24:34.383Z,9.61
2022-10-15T00:29:56.313Z,9.58
2022-10-15T00:35:18.287Z,9.52
2022-10-15T00:40:41.252Z,9.39
2022-10-15T00:46:03.735Z,9.43
2022-10-15T00:51:32.988Z,9.38
2022-10-15T00:56:55.595Z,9.32
2022-10-15T01:02:21.073Z,9.31
2022-10-15T01:07:43.286Z,9.23
2022-10-15T01:13:07.755Z,9.22
2022-10-15T01:18:35.378Z,9.21
2022-10-15T01:23:57.168Z,9.14
2022-10-15T01:29:21.969Z,9.11
2022-10-15T01:35:08.458Z,9.13
2022-10-15T01:40:33.762Z,8.87
2022-10-15T01:46:04.445Z,9.05
2022-10-15T01:51:28.426Z,9.05
2022-10-15T01:56:51.599Z,8.94
2022-10-15T02:02:13.566Z,8.95
2022-10-15T02:08:05.177Z,8.99
2022-10-15T02:14:00.447Z,8.88
2022-10-15T02:19:32.978Z,8.91
2022-10-15T02:25:05.159Z,8.88
2022-10-15T02:30:28.681Z,8.82
2022-10-15T02:35:51.491Z,8.90
2022-10-15T02:41:13.648Z,8.91
2022-10-15T02:46:35.496Z,8.86
2022-10-15T02:51:57.321Z,8.88
2022-10-15T02:57:19.187Z,8.92
2022-10-15T03:02:41.211Z,8.98
2022-10-15T03:08:03.261Z,9.00
2022-10-15T03:13:25.079Z,9.06
2022-10-15T03:18:47.745Z,8.92
2022-10-15T03:24:09.659Z,8.93
2022-10-15T03:29:31.487Z,8.89
2022-10-15T03:34:53.306Z,8.83
2022-10-15T03:40:15.205Z,8.82
2022-10-15T03:45:37.179Z,8.89
2022-10-15T03:50:59.033Z,8.71
2022-10-15T03:56:20.889Z,8.70
2022-10-15T04:01:43.950Z,8.73
2022-10-15T04:07:05.800Z,8.66
2022-10-15T04:12:27.655Z,8.69
2022-10-15T04:23:20.463Z,8.56
2022-10-15T04:28:42.598Z,8.65
2022-10-15T04:34:05.293Z,8.67
2022-10-15T04:39:27.105Z,8.69
2022-10-15T04:44:48.950Z,8.83
2022-10-15T04:50:11.043Z,8.74
2022-10-15T04:55:32.885Z,8.93
2022-10-15T05:00:54.717Z,8.98
2022-10-15T05:06:22.027Z,9.08
2022-10-15T05:11:43.922Z,9.00
2022-10-15T05:17:05.768Z,9.12
2022-10-15T05:22:27.641Z,9.11
2022-10-15T05:27:49.501Z,9.13
2022-10-15T05:33:11.610Z,9.24
2022-10-15T05:38:33.446Z,9.61
2022-10-15T05:43:57.720Z,10.68
2022-10-15T05:49:19.552Z,11.89
2022-10-15T05:54:41.449Z,14.14
2022-10-15T06:00:06.554Z,15.10
2022-10-15T06:05:28.387Z,15.26
2022-10-15T06:10:50.317Z,16.27
2022-10-15T06:16:15.529Z,17.02
2022-10-15T06:21:39.821Z,15.80
2022-10-15T06:27:01.668Z,15.61
2022-10-15T06:32:23.480Z,15.64
2022-10-15T06:37:45.362Z,16.21
2022-10-15T06:43:09.938Z,18.59
2022-10-15T06:48:32.202Z,19.70
2022-10-15T06:53:54.061Z,19.94
2022-10-15T06:59:15.960Z,21.03
2022-10-15T07:04:37.827Z,21.47
2022-10-15T07:09:59.680Z,21.37
2022-10-15T07:15:22.416Z,21.83
2022-10-15T07:20:44.274Z,20.87
2022-10-15T07:26:06.182Z,22.31
2022-10-15T07:31:27.998Z,23.27
2022-10-15T07:36:49.830Z,23.44
2022-10-15T07:47:40.634Z,21.93
2022-10-15T07:53:02.470Z,17.58
2022-10-15T07:58:24.296Z,15.25
2022-10-15T08:03:46.641Z,14.49
2022-10-15T08:09:08.502Z,13.71
2022-10-15T08:14:30.438Z,13.09
2022-10-15T08:19:52.286Z,13.20
2022-10-15T08:25:14.251Z,13.82
2022-10-15T08:30:37.380Z,17.20
2022-10-15T08:35:59.290Z,15.77
2022-10-15T08:41:45.256Z,16.53
2022-10-15T08:47:12.889Z,19.86
2022-10-15T08:52:48.328Z,20.98
2022-10-15T08:58:23.993Z,20.69
2022-10-15T09:04:13.846Z,20.13
2022-10-15T09:09:51.280Z,19.40
2022-10-15T09:15:16.943Z,20.95
2022-10-15T09:20:38.893Z,19.74
2022-10-15T09:26:18.354Z,19.61
2022-10-15T09:37:31.336Z,18.46
2022-10-15T09:42:53.679Z,18.00
2022-10-15T09:48:18.531Z,17.55
2022-10-15T09:54:01.911Z,16.59
2022-10-15T09:59:25.585Z,16.63
2022-10-15T10:04:47.514Z,16.63
2022-10-15T10:10:28.368Z,16.72
2022-10-15T10:15:57.614Z,17.13
2022-10-15T10:21:25.271Z,16.89
2022-10-15T10:26:48.151Z,16.74
2022-10-15T10:32:20.733Z,17.10
2022-10-15T10:37:43.195Z,17.74
2022-10-15T10:43:14.157Z,17.76
2022-10-15T10:48:45.108Z,18.43
2022-10-15T10:54:13.438Z,18.09
2022-10-15T10:59:48.270Z,18.83
2022-10-15T11:05:11.954Z,18.81
2022-10-15T11:11:03.379Z,19.15
2022-10-15T11:16:33.330Z,18.86
2022-10-15T11:22:34.912Z,18.94
2022-10-15T11:28:39.968Z,18.58
2022-10-15T11:34:22.655Z,18.93
2022-10-15T11:39:56.795Z,18.72
2022-10-15T11:45:36.093Z,19.05
2022-10-15T11:51:03.278Z,19.25
2022-10-15T11:56:50.395Z,19.31
2022-10-15T12:02:22.388Z,19.55
2022-10-15T12:07:48.113Z,19.13
2022-10-15T12:13:13.064Z,19.16
2022-10-15T12:18:47.686Z,19.06
2022-10-15T12:24:37.515Z,18.90
2022-10-15T12:30:02.453Z,19.06
2022-10-15T12:35:34.229Z,19.15
2022-10-15T12:41:03.339Z,19.10
2022-10-15T12:46:38.186Z,18.88
2022-10-15T12:52:01.781Z,18.82
2022-10-15T12:57:32.882Z,18.92
2022-10-15T13:02:56.628Z,18.92
2022-10-15T13:08:25.174Z,18.87
2022-10-15T13:13:49.244Z,18.81
2022-10-15T13:19:18.860Z,18.91
2022-10-15T13:24:43.010Z,18.84
2022-10-15T13:30:13.426Z,18.77
2022-10-15T13:35:39.233Z,18.93
2022-10-15T13:41:01.350Z,18.89
2022-10-15T13:46:24.507Z,19.01
2022-10-15T13:51:49.793Z,18.96
2022-10-15T13:57:15.485Z,18.85
2022-10-15T14:02:37.422Z,18.73
2022-10-15T14:07:59.258Z,18.67
2022-10-15T14:13:21.133Z,18.66
2022-10-15T14:18:52.719Z,18.56
2022-10-15T14:24:20.851Z,18.69
2022-10-15T14:29:47.919Z,18.60
2022-10-15T14:35:22.998Z,18.44
2022-10-15T14:41:06.425Z,18.39
2022-10-15T14:46:39.908Z,18.32
2022-10-15T14:52:11.876Z,18.28
2022-10-15T14:57:39.852Z,18.25
2022-10-15T15:03:06.496Z,18.26
2022-10-15T15:08:28.392Z,18.23
2022-10-15T15:13:50.750Z,18.22
2022-10-15T15:19:12.590Z,18.11
2022-10-15T15:24:34.447Z,18.04
2022-10-15T15:29:57.460Z,18.02
2022-10-15T15:35:29.132Z,17.91
2022-10-15T15:40:51.101Z,17.92
2022-10-15T15:46:13.380Z,17.87
2022-10-15T15:51:35.208Z,17.80
2022-10-15T15:56:57.479Z,17.77
2022-10-15T16:02:19.309Z,17.67
2022-10-15T16:07:41.406Z,17.58
2022-10-15T16:13:03.317Z,17.41
2022-10-15T16:18:25.533Z,17.24
2022-10-15T16:23:47.400Z,17.17
2022-10-15T16:29:09.297Z,17.14
2022-10-15T16:34:31.209Z,16.99
2022-10-15T16:39:53.061Z,16.94
2022-10-15T16:45:15.103Z,16.82
2022-10-15T16:50:36.957Z,16.80
2022-10-15T16:56:01.509Z,16.88
2022-10-15T17:01:26.782Z,16.79
2022-10-15T17:06:48.710Z,16.79
2022-10-15T17:12:10.583Z,16.78
2022-10-15T17:17:32.449Z,16.78
2022-10-15T17:22:54.352Z,16.74
2022-10-15T17:28:16.287Z,16.67
2022-10-15T17:33:40.057Z,16.44
2022-10-15T17:39:02.238Z,16.27
2022-10-15T17:44:24.186Z,16.20
2022-10-15T17:49:46.281Z,16.19
2022-10-15T17:55:08.759Z,16.14
2022-10-15T18:00:30.681Z,16.09
2022-10-15T18:05:52.593Z,15.99
2022-10-15T18:11:20.909Z,15.93
2022-10-15T18:16:42.863Z,15.88
2022-10-15T18:22:04.707Z,15.88
2022-10-15T18:27:26.814Z,15.73
2022-10-15T18:32:50.425Z,15.82
2022-10-15T18:38:14.134Z,15.60
2022-10-15T18:43:36.095Z,15.65
2022-10-15T18:48:58.456Z,15.63
2022-10-15T18:54:21.443Z,15.70
2022-10-15T18:59:43.434Z,15.63
2022-10-15T19:05:05.778Z,15.69
2022-10-15T19:10:27.697Z,15.65
2022-10-15T19:15:49.554Z,15.59
2022-10-15T19:21:11.723Z,15.56
2022-10-15T19:26:34.433Z,15.62
2022-10-15T19:31:56.314Z,15.54
2022-10-15T19:37:18.222Z,15.46
2022-10-15T19:42:40.114Z,15.61
2022-10-15T19:48:02.632Z,15.65
2022-10-15T19:53:24.647Z,15.74
2022-10-15T19:58:46.552Z,15.72
2022-10-15T20:04:08.437Z,15.64
2022-10-15T20:09:30.399Z,15.69
2022-10-15T20:14:52.275Z,15.76
2022-10-15T20:20:14.231Z,15.72
2022-10-15T20:25:39.491Z,15.77
2022-10-15T20:31:05.421Z,15.70
2022-10-15T20:36:27.870Z,15.62
2022-10-15T20:41:49.720Z,15.67
2022-10-15T20:47:14.239Z,15.60
2022-10-15T20:52:36.118Z,15.61
2022-10-15T20:57:58.047Z,15.60
2022-10-15T21:03:19.898Z,15.52
2022-10-15T21:08:41.718Z,15.41
2022-10-15T21:14:03.542Z,15.38
2022-10-15T21:19:25.540Z,15.34
2022-10-15T21:24:47.477Z,15.40
2022-10-15T21:30:10.320Z,15.40
2022-10-15T21:35:32.568Z,15.31
2022-10-15T21:40:54.442Z,15.37
2022-10-15T21:46:16.616Z,15.39
2022-10-15T21:51:38.465Z,15.44
2022-10-15T21:57:00.383Z,15.40
2022-10-15T22:02:22.340Z,15.41
2022-10-15T22:07:44.176Z,15.47
2022-10-15T22:13:06.112Z,15.50
2022-10-15T22:18:28.067Z,15.53
2022-10-15T22:23:54.108Z,15.63
2022-10-15T22:29:22.348Z,15.60
2022-10-15T22:34:44.269Z,15.64
2022-10-15T22:40:06.339Z,15.51
2022-10-15T22:45:28.361Z,15.53
2022-10-15T22:50:58.299Z,15.49
2022-10-15T22:56:20.239Z,15.47
2022-10-15T23:01:42.228Z,15.46
2022-10-15T23:07:04.214Z,15.43
2022-10-15T23:12:26.473Z,15.41
2022-10-15T23:17:48.408Z,15.33
2022-10-15T23:23:10.315Z,15.41
2022-10-15T23:28:32.504Z,15.25
2022-10-15T23:33:56.275Z,15.32
2022-10-15T23:39:21.215Z,15.29
2022-10-15T23:44:43.072Z,15.26
2022-10-15T23:50:05.381Z,15.23
2022-10-15T23:55:27.476Z,15.26
